Modling, Austria
Current Conditions -  °F | °C
As of 4:20 PM on Thursday 30 Oct 2014 (Local Time) from LOWW Reporting Station
Broken Clouds Broken Clouds  
Wind Chill: 48°   Ceiling: 4800
Heat Index: 48°   Visibility: 4mi
Dew Point: 43°   Wind: 1mph
Humidity: 82%   Direction: NA
Pressure: 30.3"   Gusts: NA
Location:  48.09°N, 16.28°E
Report Text: LOWW 301420Z VRB01KT 7000 FEW043 SCT045 BKN048 09/06 Q1026 NOSIG
Loading
Personal Weather Stations






























Interactive Weather Map
Tropical Storm Tracking
New forecast layout! Learn more

10-Day Weather Forecast

Advertisements
Track Severe Weather on mobile